createdAt,value
2017-08-19T00:01:06.442Z,2.30
2017-08-19T00:03:34.737Z,1.90
2017-08-19T00:06:02.311Z,2.07
2017-08-19T00:08:29.830Z,1.93
2017-08-19T00:10:57.362Z,2.13
2017-08-19T00:13:24.906Z,2.37
2017-08-19T00:15:52.465Z,2.37
2017-08-19T00:18:19.992Z,2.50
2017-08-19T00:20:47.680Z,2.10
2017-08-19T00:23:15.342Z,2.30
2017-08-19T00:25:42.859Z,2.20
2017-08-19T00:28:11.170Z,2.80
2017-08-19T00:30:38.842Z,2.60
2017-08-19T00:33:06.414Z,2.90
2017-08-19T00:35:33.953Z,3.50
2017-08-19T00:38:01.517Z,3.13
2017-08-19T00:40:29.182Z,3.33
2017-08-19T00:42:56.746Z,4.53
2017-08-19T00:45:24.271Z,3.30
2017-08-19T00:47:52.561Z,3.90
2017-08-19T00:50:20.099Z,4.77
2017-08-19T00:52:48.419Z,4.87
2017-08-19T00:55:15.973Z,4.60
2017-08-19T00:57:43.505Z,4.73
2017-08-19T01:00:11.091Z,5.30
2017-08-19T01:02:38.605Z,5.27
2017-08-19T01:05:06.905Z,4.97
2017-08-19T01:07:34.493Z,4.43
2017-08-19T01:10:02.050Z,3.80
2017-08-19T01:12:29.585Z,3.80
2017-08-19T01:14:57.100Z,3.07
2017-08-19T01:17:24.614Z,3.57
2017-08-19T01:19:52.157Z,4.13
2017-08-19T01:22:19.679Z,4.80
2017-08-19T01:24:47.200Z,4.37
2017-08-19T01:27:14.738Z,3.80
2017-08-19T01:29:42.260Z,4.27
2017-08-19T01:32:09.778Z,4.40
2017-08-19T01:34:37.318Z,4.30
2017-08-19T01:37:04.898Z,4.33
2017-08-19T01:39:32.418Z,5.20
2017-08-19T01:41:59.960Z,4.33
2017-08-19T01:44:27.481Z,4.47
2017-08-19T01:46:55.005Z,4.47
2017-08-19T01:49:22.541Z,3.73
2017-08-19T01:51:50.062Z,3.90
2017-08-19T01:54:17.585Z,4.23
2017-08-19T01:56:45.121Z,4.30
2017-08-19T01:59:12.641Z,4.30
2017-08-19T02:01:40.164Z,3.77
2017-08-19T02:04:07.703Z,3.93
2017-08-19T02:06:35.224Z,3.80
2017-08-19T02:09:02.737Z,4.20
2017-08-19T02:11:30.271Z,4.40
2017-08-19T02:13:57.785Z,4.10
2017-08-19T02:16:25.307Z,4.67
2017-08-19T02:18:52.846Z,4.77
2017-08-19T02:21:20.370Z,3.97
2017-08-19T02:23:47.894Z,5.17
2017-08-19T02:26:15.446Z,5.00
2017-08-19T02:28:42.962Z,5.30
2017-08-19T02:31:10.478Z,5.10
2017-08-19T02:33:38.021Z,5.30
2017-08-19T02:36:05.546Z,5.43
2017-08-19T02:38:33.070Z,5.53
2017-08-19T02:41:00.609Z,5.10
2017-08-19T02:43:28.130Z,5.73
2017-08-19T02:45:55.650Z,5.40
2017-08-19T02:48:23.190Z,4.93
2017-08-19T02:50:50.710Z,5.53
2017-08-19T02:53:18.226Z,5.37
2017-08-19T02:55:45.771Z,5.80
2017-08-19T02:58:13.290Z,5.07
2017-08-19T03:00:40.821Z,4.80
2017-08-19T03:03:08.357Z,5.73
2017-08-19T03:05:35.873Z,6.00
2017-08-19T03:08:03.384Z,6.70
2017-08-19T03:10:30.917Z,5.93
2017-08-19T03:12:58.437Z,6.10
2017-08-19T03:15:25.957Z,5.87
2017-08-19T03:17:53.491Z,5.00
2017-08-19T03:20:21.019Z,5.57
2017-08-19T03:22:48.540Z,4.90
2017-08-19T03:25:16.084Z,5.77
2017-08-19T03:27:43.611Z,5.80
2017-08-19T03:30:11.129Z,5.93
2017-08-19T03:32:38.674Z,5.80
2017-08-19T03:35:06.202Z,20.93
2017-08-19T03:37:33.726Z,9.30
2017-08-19T03:40:01.263Z,6.80
2017-08-19T03:42:28.780Z,5.87
2017-08-19T03:44:56.301Z,5.30
2017-08-19T03:47:23.838Z,6.03
2017-08-19T03:49:51.362Z,5.33
2017-08-19T03:52:18.886Z,5.90
2017-08-19T03:54:46.424Z,6.00
2017-08-19T03:57:13.950Z,5.07
2017-08-19T03:59:41.466Z,4.93
2017-08-19T04:02:09.025Z,4.40
2017-08-19T04:04:36.545Z,5.10
2017-08-19T04:07:04.066Z,4.10
2017-08-19T04:09:31.609Z,4.53
2017-08-19T04:11:59.133Z,5.10
2017-08-19T04:14:26.651Z,4.80
2017-08-19T04:16:54.189Z,4.70
2017-08-19T04:19:21.707Z,5.40
2017-08-19T04:21:49.241Z,4.60
2017-08-19T04:24:16.855Z,4.90
2017-08-19T04:26:44.620Z,5.17
2017-08-19T04:29:12.133Z,4.77
2017-08-19T04:31:39.682Z,5.20
2017-08-19T04:34:07.197Z,7.40
2017-08-19T04:36:34.712Z,5.70
2017-08-19T04:39:02.254Z,4.60
2017-08-19T04:41:29.794Z,4.30
2017-08-19T04:43:57.312Z,5.27
2017-08-19T04:46:24.854Z,3.97
2017-08-19T04:48:52.370Z,4.50
2017-08-19T04:51:19.882Z,4.73
2017-08-19T04:53:47.422Z,4.10
2017-08-19T04:56:14.946Z,5.43
2017-08-19T04:58:42.465Z,5.47
2017-08-19T05:01:09.997Z,4.67
2017-08-19T05:03:37.521Z,4.90
2017-08-19T05:06:05.038Z,5.10
2017-08-19T05:08:32.578Z,5.27
2017-08-19T05:11:00.097Z,5.07
2017-08-19T05:13:27.613Z,4.23
2017-08-19T05:15:55.148Z,6.80
2017-08-19T05:18:22.664Z,4.73
2017-08-19T05:20:50.187Z,4.67
2017-08-19T05:23:17.724Z,4.30
2017-08-19T05:25:45.247Z,4.50
2017-08-19T05:28:12.783Z,4.57
2017-08-19T05:30:40.320Z,4.07
2017-08-19T05:33:07.841Z,3.83
2017-08-19T05:35:35.356Z,4.00
2017-08-19T05:38:02.894Z,4.43
2017-08-19T05:40:30.408Z,4.20
2017-08-19T05:42:57.926Z,4.50
2017-08-19T05:45:25.468Z,3.93
2017-08-19T05:47:52.990Z,3.13
2017-08-19T05:50:20.502Z,4.20
2017-08-19T05:52:48.051Z,4.03
2017-08-19T05:55:15.569Z,3.00
2017-08-19T05:57:43.093Z,3.97
2017-08-19T06:00:10.669Z,3.40
2017-08-19T06:02:38.190Z,3.20
2017-08-19T06:05:05.714Z,3.20
2017-08-19T06:07:33.253Z,3.50
2017-08-19T06:10:00.781Z,3.17
2017-08-19T06:12:28.293Z,2.90
2017-08-19T06:14:56.826Z,3.00
2017-08-19T06:17:24.333Z,3.70
2017-08-19T06:19:51.857Z,3.43
2017-08-19T06:22:19.407Z,3.33
2017-08-19T06:24:46.957Z,3.20
2017-08-19T06:27:14.480Z,3.00
2017-08-19T06:29:42.012Z,3.10
2017-08-19T06:32:09.538Z,3.20
2017-08-19T06:34:37.062Z,3.07
2017-08-19T06:37:04.592Z,3.20
2017-08-19T06:39:32.116Z,3.10
2017-08-19T06:41:59.638Z,2.73
2017-08-19T06:44:27.270Z,3.20
2017-08-19T06:46:54.879Z,2.80
2017-08-19T06:49:22.398Z,2.93
2017-08-19T06:51:49.966Z,2.53
2017-08-19T06:54:17.494Z,2.70
2017-08-19T06:56:45.017Z,2.43
2017-08-19T06:59:12.553Z,2.83
2017-08-19T07:01:40.086Z,2.70
2017-08-19T07:04:07.610Z,2.57
2017-08-19T07:06:35.155Z,2.53
2017-08-19T07:09:02.689Z,3.60
2017-08-19T07:11:30.211Z,2.80
2017-08-19T07:13:57.753Z,2.40
2017-08-19T07:16:25.273Z,2.03
2017-08-19T07:18:52.789Z,2.13
2017-08-19T07:21:20.325Z,2.50
2017-08-19T07:23:47.845Z,2.03
2017-08-19T07:26:15.367Z,1.77
2017-08-19T07:28:42.913Z,1.83
2017-08-19T07:31:10.430Z,1.90
2017-08-19T07:33:37.944Z,2.10
2017-08-19T07:36:05.482Z,2.13
2017-08-19T07:38:32.998Z,2.07
2017-08-19T07:41:00.516Z,3.30
2017-08-19T07:43:28.070Z,2.20
2017-08-19T07:45:55.591Z,2.37
2017-08-19T07:48:23.108Z,2.10
2017-08-19T07:50:50.646Z,1.97
2017-08-19T07:53:18.163Z,2.10
2017-08-19T07:55:45.682Z,2.10
2017-08-19T07:58:13.230Z,2.30
2017-08-19T08:00:40.754Z,1.90
2017-08-19T08:03:08.282Z,1.70
2017-08-19T08:05:35.825Z,2.30
2017-08-19T08:08:03.398Z,1.70
2017-08-19T08:10:30.922Z,1.73
2017-08-19T08:12:58.473Z,1.83
2017-08-19T08:15:26.786Z,1.60
2017-08-19T08:17:54.445Z,1.57
2017-08-19T08:20:22.009Z,1.63
2017-08-19T08:22:50.447Z,2.00
2017-08-19T08:25:19.047Z,1.93
2017-08-19T08:27:46.841Z,2.10
2017-08-19T08:30:14.365Z,1.80
2017-08-19T08:32:42.671Z,1.87
2017-08-19T08:35:10.333Z,1.77
2017-08-19T08:37:37.893Z,2.10
2017-08-19T08:40:05.457Z,1.93
2017-08-19T08:42:33.013Z,2.00
2017-08-19T08:45:00.537Z,2.00
2017-08-19T08:47:28.818Z,2.40
2017-08-19T08:49:57.125Z,3.20
2017-08-19T08:52:24.647Z,2.50
2017-08-19T08:54:52.935Z,1.90
2017-08-19T08:57:20.526Z,2.30
2017-08-19T08:59:48.082Z,1.97
2017-08-19T09:02:15.629Z,2.30
2017-08-19T09:04:43.209Z,2.20
2017-08-19T09:07:10.860Z,2.30
2017-08-19T09:09:38.522Z,2.00
2017-08-19T09:12:06.053Z,2.50
2017-08-19T09:14:33.643Z,2.70
2017-08-19T09:17:01.205Z,2.20
2017-08-19T09:19:28.749Z,2.80
2017-08-19T09:21:56.273Z,2.17
2017-08-19T09:24:24.567Z,2.40
2017-08-19T09:26:52.165Z,1.90
2017-08-19T09:29:19.689Z,2.33
2017-08-19T09:31:47.277Z,2.00
2017-08-19T09:34:14.835Z,1.73
2017-08-19T09:36:42.355Z,1.73
2017-08-19T09:39:10.673Z,1.70
2017-08-19T09:41:38.213Z,1.73
2017-08-19T09:44:05.801Z,1.63
2017-08-19T09:46:33.453Z,2.37
2017-08-19T09:49:01.017Z,1.80
2017-08-19T09:51:28.538Z,2.10
2017-08-19T09:53:56.849Z,2.20
2017-08-19T09:56:24.410Z,2.43
2017-08-19T09:58:51.936Z,2.40
2017-08-19T10:01:20.286Z,2.70
2017-08-19T10:03:47.820Z,2.00
2017-08-19T10:06:15.366Z,2.07
2017-08-19T10:08:54.902Z,2.00
2017-08-19T10:11:22.463Z,2.37
2017-08-19T10:13:49.990Z,1.73
2017-08-19T10:16:18.290Z,2.03
2017-08-19T10:18:45.962Z,2.10
2017-08-19T10:21:13.624Z,2.67
2017-08-19T10:23:41.170Z,1.70
2017-08-19T10:26:08.717Z,1.80
2017-08-19T10:28:36.241Z,1.93
2017-08-19T10:31:03.865Z,1.80
2017-08-19T10:33:31.391Z,2.00
2017-08-19T10:35:59.697Z,1.50
2017-08-19T10:38:27.285Z,2.10
2017-08-19T10:40:54.797Z,1.70
2017-08-19T10:43:22.693Z,2.20
2017-08-19T10:45:50.240Z,2.03
2017-08-19T10:48:18.444Z,1.67
2017-08-19T10:50:46.180Z,1.97
2017-08-19T10:53:13.720Z,2.10
2017-08-19T10:55:41.255Z,1.80
2017-08-19T10:58:09.578Z,1.70
2017-08-19T11:00:37.260Z,1.47
2017-08-19T11:03:04.802Z,1.47
2017-08-19T11:05:32.322Z,1.80
2017-08-19T11:08:00.638Z,1.87
2017-08-19T11:10:28.375Z,1.47
2017-08-19T11:12:55.906Z,1.40
2017-08-19T11:15:23.454Z,1.33
2017-08-19T11:17:51.082Z,1.60
2017-08-19T11:20:18.741Z,1.80
2017-08-19T11:22:46.722Z,1.63
2017-08-19T11:25:14.246Z,3.33
2017-08-19T11:27:41.829Z,2.07
2017-08-19T11:30:09.377Z,4.50
2017-08-19T11:32:36.949Z,1.60
2017-08-19T11:35:04.461Z,2.00
2017-08-19T11:37:32.006Z,1.93
2017-08-19T11:39:59.627Z,1.77
2017-08-19T11:42:27.229Z,2.57
2017-08-19T11:44:54.913Z,1.60
2017-08-19T11:47:22.437Z,1.30
2017-08-19T11:49:49.961Z,1.40
2017-08-19T11:52:17.730Z,1.63
2017-08-19T11:54:45.254Z,1.20
2017-08-19T11:57:13.626Z,1.47
2017-08-19T11:59:41.934Z,1.37
2017-08-19T12:02:09.458Z,1.43
2017-08-19T12:04:37.784Z,1.40
2017-08-19T12:07:05.346Z,1.60
2017-08-19T12:09:34.006Z,1.70
2017-08-19T12:12:01.586Z,1.50
2017-08-19T12:14:29.248Z,1.40
2017-08-19T12:16:56.810Z,2.17
2017-08-19T12:19:25.595Z,1.70
2017-08-19T12:21:53.145Z,1.67
2017-08-19T12:24:20.665Z,1.60
2017-08-19T12:26:48.189Z,1.67
2017-08-19T12:29:15.836Z,1.87
2017-08-19T12:31:43.361Z,2.37
2017-08-19T12:34:11.689Z,1.47
2017-08-19T12:36:39.333Z,1.20
2017-08-19T12:39:06.891Z,1.50
2017-08-19T12:41:34.450Z,1.60
2017-08-19T12:44:01.993Z,1.50
2017-08-19T12:46:29.518Z,3.80
2017-08-19T12:48:57.819Z,1.53
2017-08-19T12:51:25.353Z,1.20
2017-08-19T12:53:52.874Z,1.63
2017-08-19T12:56:21.242Z,1.20
2017-08-19T12:58:48.802Z,2.80
2017-08-19T13:01:16.364Z,6.40
2017-08-19T13:03:43.884Z,1.27
2017-08-19T13:06:12.222Z,1.30
2017-08-19T13:08:39.756Z,1.20
2017-08-19T13:11:07.280Z,1.45
2017-08-19T13:13:35.592Z,1.17
2017-08-19T13:16:03.122Z,1.23
2017-08-19T13:18:30.709Z,1.10
2017-08-19T13:20:58.272Z,1.00
2017-08-19T13:23:25.802Z,1.10
2017-08-19T13:25:53.405Z,1.08
2017-08-19T13:28:20.947Z,1.12
2017-08-19T13:30:48.473Z,1.20
2017-08-19T13:33:16.785Z,1.00
2017-08-19T13:35:44.325Z,1.10
2017-08-19T13:38:11.903Z,9.83
2017-08-19T13:40:39.470Z,1.60
2017-08-19T13:43:07.011Z,1.50
2017-08-19T13:45:34.533Z,2.70
2017-08-19T13:48:02.151Z,1.70
2017-08-19T13:50:29.699Z,1.40
2017-08-19T13:52:57.329Z,1.20
2017-08-19T13:55:25.912Z,1.40
2017-08-19T13:57:54.327Z,1.20
2017-08-19T14:00:21.897Z,1.10
2017-08-19T14:02:49.442Z,1.33
2017-08-19T14:05:17.015Z,2.17
2017-08-19T14:07:44.539Z,1.43
2017-08-19T14:10:12.130Z,1.33
2017-08-19T14:12:39.686Z,5.83
2017-08-19T14:15:07.251Z,7.90
2017-08-19T14:17:34.807Z,1.20
2017-08-19T14:20:03.118Z,1.37
2017-08-19T14:22:30.773Z,1.10
2017-08-19T14:24:58.401Z,1.13
2017-08-19T14:27:25.997Z,4.03
2017-08-19T14:29:53.633Z,1.00
2017-08-19T14:32:21.245Z,1.17
2017-08-19T14:34:48.849Z,1.50
2017-08-19T14:37:16.385Z,1.40
2017-08-19T14:39:43.961Z,1.23
2017-08-19T14:42:11.523Z,1.20
2017-08-19T14:44:39.081Z,2.30
2017-08-19T14:47:06.601Z,7.10
2017-08-19T14:49:34.189Z,1.50
2017-08-19T14:52:01.759Z,1.43
2017-08-19T14:54:29.331Z,1.17
2017-08-19T14:56:56.988Z,1.03
2017-08-19T14:59:24.808Z,1.60
2017-08-19T15:01:52.335Z,1.43
2017-08-19T15:04:19.869Z,1.53
2017-08-19T15:06:47.387Z,2.03
2017-08-19T15:09:14.934Z,4.20
2017-08-19T15:11:43.248Z,1.77
2017-08-19T15:14:10.822Z,1.30
2017-08-19T15:16:38.346Z,1.53
2017-08-19T15:19:06.702Z,6.23
2017-08-19T15:21:34.321Z,1.57
2017-08-19T15:24:01.943Z,1.43
2017-08-19T15:26:29.487Z,1.53
2017-08-19T15:28:57.010Z,1.50
2017-08-19T15:31:24.619Z,4.00
2017-08-19T15:33:52.222Z,2.77
2017-08-19T15:36:19.747Z,1.60
2017-08-19T15:38:47.397Z,2.50
2017-08-19T15:41:14.945Z,2.10
2017-08-19T15:43:42.529Z,1.67
2017-08-19T15:46:10.062Z,1.57
2017-08-19T15:48:37.689Z,2.37
2017-08-19T15:51:05.777Z,4.27
2017-08-19T15:53:33.309Z,1.50
2017-08-19T15:56:00.869Z,1.83
2017-08-19T15:58:28.435Z,1.53
2017-08-19T16:00:55.957Z,1.90
2017-08-19T16:03:24.271Z,1.40
2017-08-19T16:05:51.860Z,1.50
2017-08-19T16:08:19.493Z,1.63
2017-08-19T16:10:47.033Z,1.80
2017-08-19T16:13:14.561Z,1.40
2017-08-19T16:15:42.171Z,1.30
2017-08-19T16:18:09.716Z,1.70
2017-08-19T16:20:37.282Z,1.90
2017-08-19T16:23:04.810Z,1.80
2017-08-19T16:25:32.402Z,1.53
2017-08-19T16:28:00.064Z,1.40
2017-08-19T16:30:28.520Z,1.80
2017-08-19T16:32:56.206Z,1.87
2017-08-19T16:35:23.726Z,2.50
2017-08-19T16:37:51.346Z,2.00
2017-08-19T16:40:18.893Z,7.80
2017-08-19T16:42:46.489Z,3.50
2017-08-19T16:45:14.009Z,2.30
2017-08-19T16:47:41.537Z,2.67
2017-08-19T16:50:09.057Z,3.20
2017-08-19T16:52:36.685Z,3.93
2017-08-19T16:55:04.221Z,2.10
2017-08-19T16:57:31.759Z,5.10
2017-08-19T17:00:00.081Z,1.50
2017-08-19T17:02:27.642Z,2.20
2017-08-19T17:04:55.199Z,2.23
2017-08-19T17:07:22.861Z,2.17
2017-08-19T17:09:50.400Z,1.97
2017-08-19T17:12:18.205Z,2.17
2017-08-19T17:14:45.845Z,1.73
2017-08-19T17:17:13.381Z,1.70
2017-08-19T17:19:40.904Z,4.80
2017-08-19T17:22:08.429Z,1.60
2017-08-19T17:24:36.090Z,1.93
2017-08-19T17:27:03.643Z,2.20
2017-08-19T17:29:31.158Z,1.60
2017-08-19T17:31:59.464Z,6.53
2017-08-19T17:34:27.041Z,2.00
2017-08-19T17:36:54.597Z,2.23
2017-08-19T17:39:22.138Z,2.67
2017-08-19T17:41:49.662Z,2.17
2017-08-19T17:44:17.188Z,3.33
2017-08-19T17:46:44.838Z,2.27
2017-08-19T17:49:12.402Z,9.00
2017-08-19T17:51:39.962Z,2.40
2017-08-19T17:54:07.547Z,2.03
2017-08-19T17:56:35.085Z,2.00
2017-08-19T17:59:02.628Z,1.97
2017-08-19T18:01:30.173Z,1.77
2017-08-19T18:03:57.701Z,2.03
2017-08-19T18:06:25.257Z,6.53
2017-08-19T18:08:52.794Z,2.07
2017-08-19T18:11:20.328Z,2.03
2017-08-19T18:13:47.895Z,1.53
2017-08-19T18:16:15.471Z,1.67
2017-08-19T18:18:43.024Z,1.87
2017-08-19T18:21:10.538Z,2.20
2017-08-19T18:23:38.130Z,2.23
2017-08-19T18:26:05.824Z,2.30
2017-08-19T18:28:33.553Z,2.30
2017-08-19T18:31:01.101Z,2.00
2017-08-19T18:33:28.868Z,1.87
2017-08-19T18:35:56.458Z,2.17
2017-08-19T18:38:24.102Z,1.90
2017-08-19T18:40:51.661Z,1.90
2017-08-19T18:43:19.225Z,2.20
2017-08-19T18:45:46.771Z,2.03
2017-08-19T18:48:14.529Z,2.00
2017-08-19T18:50:42.115Z,2.40
2017-08-19T18:53:09.667Z,2.30
2017-08-19T18:55:37.261Z,2.10
2017-08-19T18:58:05.003Z,2.07
2017-08-19T19:00:32.565Z,4.17
2017-08-19T19:03:00.121Z,2.37
2017-08-19T19:05:27.635Z,2.50
2017-08-19T19:07:55.222Z,5.60
2017-08-19T19:10:22.819Z,3.97
2017-08-19T19:12:50.349Z,3.70
2017-08-19T19:15:17.903Z,2.83
2017-08-19T19:17:45.484Z,2.53
2017-08-19T19:20:13.029Z,2.40
2017-08-19T19:22:40.630Z,2.90
2017-08-19T19:25:08.979Z,2.47
2017-08-19T19:27:36.509Z,3.00
2017-08-19T19:30:04.110Z,3.20
2017-08-19T19:32:31.638Z,2.70
2017-08-19T19:34:59.174Z,11.00
2017-08-19T19:37:26.718Z,5.90
2017-08-19T19:39:55.050Z,4.07
2017-08-19T19:42:22.575Z,3.60
2017-08-19T19:44:50.356Z,3.70
2017-08-19T19:47:17.882Z,3.20
2017-08-19T19:49:45.561Z,3.37
2017-08-19T19:52:13.140Z,2.70
2017-08-19T19:54:40.677Z,2.50
2017-08-19T19:57:08.229Z,3.00
2017-08-19T19:59:35.862Z,3.20
2017-08-19T20:02:04.157Z,2.70
2017-08-19T20:04:32.441Z,2.63
2017-08-19T20:06:59.997Z,3.20
2017-08-19T20:09:27.535Z,2.97
2017-08-19T20:11:55.049Z,2.70
2017-08-19T20:14:22.591Z,3.07
2017-08-19T20:16:50.143Z,12.40
2017-08-19T20:19:17.665Z,5.30
2017-08-19T20:21:45.303Z,4.03
2017-08-19T20:24:12.846Z,5.03
2017-08-19T20:26:40.378Z,7.00
2017-08-19T20:29:07.966Z,10.50
2017-08-19T20:31:35.534Z,8.00
2017-08-19T20:34:03.094Z,4.53
2017-08-19T20:36:30.650Z,4.50
2017-08-19T20:38:58.210Z,4.27
2017-08-19T20:41:25.734Z,3.40
2017-08-19T20:43:53.286Z,3.43
2017-08-19T20:46:21.606Z,3.13
2017-08-19T20:48:49.154Z,3.40
2017-08-19T20:51:16.710Z,3.73
2017-08-19T20:53:44.238Z,3.40
2017-08-19T20:56:12.553Z,3.53
2017-08-19T20:58:40.210Z,3.90
2017-08-19T21:01:07.733Z,3.57
2017-08-19T21:03:36.053Z,4.00
2017-08-19T21:06:03.597Z,3.40
2017-08-19T21:08:31.131Z,3.13
2017-08-19T21:10:59.452Z,3.00
2017-08-19T21:13:27.009Z,2.87
2017-08-19T21:15:54.561Z,3.03
2017-08-19T21:18:22.077Z,2.83
2017-08-19T21:20:50.476Z,3.30
2017-08-19T21:23:18.161Z,3.53
2017-08-19T21:25:45.721Z,3.40
2017-08-19T21:28:13.267Z,3.20
2017-08-19T21:30:40.792Z,3.00
2017-08-19T21:33:09.074Z,4.10
2017-08-19T21:35:37.392Z,3.67
2017-08-19T21:38:04.948Z,3.97
2017-08-19T21:40:32.616Z,3.20
2017-08-19T21:43:00.274Z,3.77
2017-08-19T21:45:27.798Z,2.67
2017-08-19T21:47:56.110Z,3.60
2017-08-19T21:50:23.668Z,3.73
2017-08-19T21:52:51.332Z,3.20
2017-08-19T21:55:18.851Z,3.67
2017-08-19T21:57:47.493Z,4.00
2017-08-19T22:00:15.026Z,3.80
2017-08-19T22:02:42.549Z,3.80
2017-08-19T22:05:10.862Z,4.07
2017-08-19T22:07:38.381Z,4.43
2017-08-19T22:10:06.715Z,4.10
2017-08-19T22:12:34.267Z,3.43
2017-08-19T22:15:01.791Z,3.40
2017-08-19T22:17:30.085Z,3.63
2017-08-19T22:19:57.637Z,4.37
2017-08-19T22:22:25.161Z,4.10
2017-08-19T22:24:52.781Z,4.27
2017-08-19T22:27:20.351Z,4.47
2017-08-19T22:29:47.901Z,4.00
2017-08-19T22:32:15.417Z,4.00
2017-08-19T22:34:43.727Z,4.67
2017-08-19T22:37:11.248Z,4.80
2017-08-19T22:39:39.570Z,4.90
2017-08-19T22:42:07.131Z,5.07
2017-08-19T22:44:34.648Z,4.80
2017-08-19T22:47:02.940Z,5.37
2017-08-19T22:49:30.530Z,4.53
2017-08-19T22:51:58.056Z,4.73
2017-08-19T22:54:26.360Z,4.43
2017-08-19T22:56:53.922Z,4.17
2017-08-19T22:59:21.482Z,4.50
2017-08-19T23:01:49.002Z,4.37
2017-08-19T23:04:17.403Z,5.07
2017-08-19T23:06:44.926Z,4.83
2017-08-19T23:09:12.446Z,4.60
2017-08-19T23:11:39.981Z,4.10
2017-08-19T23:14:07.509Z,5.10
2017-08-19T23:16:35.830Z,4.63
2017-08-19T23:19:03.369Z,4.27
2017-08-19T23:21:30.893Z,4.83
2017-08-19T23:23:58.409Z,4.97
2017-08-19T23:26:25.969Z,5.70
2017-08-19T23:28:53.495Z,4.90
2017-08-19T23:31:21.780Z,5.57
2017-08-19T23:33:49.317Z,4.80
2017-08-19T23:36:17.632Z,5.63
2017-08-19T23:38:45.303Z,5.47
2017-08-19T23:41:12.838Z,5.53
2017-08-19T23:43:40.354Z,4.97
2017-08-19T23:46:07.980Z,6.40
2017-08-19T23:48:35.542Z,6.03
2017-08-19T23:51:03.066Z,5.93
2017-08-19T23:53:30.580Z,6.13
2017-08-19T23:55:58.118Z,6.00
2017-08-19T23:58:25.638Z,5.67
